Time;durP1;ratioP1;P1;durP2;ratioP2;P2;SDS_P1;SDS_P2;PMS_P1;PMS_P2;Temp;Humidity;BMP_temperature;BMP_pressure;BME280_temperature;BME280_humidity;BME280_pressure;Samples;Min_cycle;Max_cycle;Signal;HPM_P1;HPM_P2
2022/03/15 00:00:10;;;;;;;0.70;0.40;;;;;;;-1.32;46.53;101284.06;5071125;28;20440;-72
2022/03/15 00:02:35;;;;;;;0.80;0.40;;;;;;;-1.64;46.33;101238.75;5070991;28;20063;-72
2022/03/15 00:05:01;;;;;;;1.08;0.40;;;;;;;-1.37;45.20;101286.72;5071111;28;20032;-73
2022/03/15 00:07:28;;;;;;;0.45;0.40;;;;;;;-1.68;46.20;101286.03;5071295;28;20530;-72
2022/03/15 00:09:53;;;;;;;0.63;0.20;;;;;;;-1.77;46.43;101294.84;5070924;28;20116;-72
2022/03/15 00:12:19;;;;;;;0.55;0.32;;;;;;;-1.72;46.47;101303.56;5071225;28;20039;-71
2022/03/15 00:14:45;;;;;;;0.57;0.20;;;;;;;-1.81;46.34;101287.88;5071415;28;20036;-63
2022/03/15 00:17:12;;;;;;;0.68;0.10;;;;;;;-1.47;45.38;101304.28;5071044;28;20050;-71
2022/03/15 00:19:38;;;;;;;0.82;0.40;;;;;;;-1.35;44.50;101291.94;5070738;28;20039;-72
2022/03/15 00:22:04;;;;;;;1.65;0.28;;;;;;;-1.43;44.48;101310.41;5071387;28;20115;-72
2022/03/15 00:24:30;;;;;;;0.45;0.25;;;;;;;-1.61;45.15;101299.13;5071305;28;20050;-68
2022/03/15 00:26:55;;;;;;;0.63;0.20;;;;;;;-1.72;45.78;101308.81;5052920;28;20036;-60
2022/03/15 00:29:23;;;;;;;0.35;0.10;;;;;;;-1.70;45.73;101312.28;5071256;28;20047;-70
2022/03/15 00:31:49;;;;;;;0.52;0.30;;;;;;;-1.42;44.70;101306.91;5053342;28;20056;-70
2022/03/15 00:34:16;;;;;;;0.63;0.20;;;;;;;-1.68;45.22;101318.44;5071112;28;20854;-70
2022/03/15 00:36:41;;;;;;;0.55;0.30;;;;;;;-1.90;46.24;101315.94;5070652;28;20371;-67
2022/03/15 00:39:07;;;;;;;0.57;0.30;;;;;;;-2.00;46.32;101310.72;5070460;28;20031;-69
2022/03/15 00:41:33;;;;;;;0.68;0.10;;;;;;;-1.84;45.55;101319.41;5070977;28;20436;-69
2022/03/15 00:43:58;;;;;;;0.25;0.20;;;;;;;-1.56;44.42;101325.38;5074278;28;20096;-72
2022/03/15 00:46:24;;;;;;;0.30;0.10;;;;;;;-1.72;44.34;101324.56;5074801;28;20032;-70
2022/03/15 00:48:49;;;;;;;0.55;0.20;;;;;;;-2.04;45.00;101320.34;5074590;28;20021;-70
2022/03/15 00:51:15;;;;;;;0.30;0.30;;;;;;;-2.06;45.26;101335.25;5057143;28;20040;-71
2022/03/15 00:53:41;;;;;;;0.85;0.20;;;;;;;-2.27;46.20;101325.69;5075573;28;20056;-72
2022/03/15 00:56:07;;;;;;;0.95;0.20;;;;;;;-2.36;46.92;101329.22;5075042;28;20033;-70
2022/03/15 00:58:33;;;;;;;0.47;0.28;;;;;;;-2.46;47.17;101323.97;5074587;28;20032;-71
2022/03/15 01:00:59;;;;;;;1.08;0.22;;;;;;;-2.30;46.61;101337.06;5074644;28;20534;-69
2022/03/15 01:03:25;;;;;;;3.28;0.32;;;;;;;-2.44;46.61;101339.72;5075267;28;20108;-71
2022/03/15 01:05:50;;;;;;;0.93;0.47;;;;;;;-2.35;46.29;101338.84;5074391;28;20036;-71
2022/03/15 01:08:16;;;;;;;1.48;0.43;;;;;;;-2.20;45.88;101335.28;5074343;28;20466;-70
2022/03/15 01:10:43;;;;;;;0.65;0.30;;;;;;;-2.46;46.27;101331.00;5074502;28;20028;-70
2022/03/15 01:13:09;;;;;;;1.17;0.20;;;;;;;-2.47;47.05;101340.59;5074747;28;20115;-70
2022/03/15 01:15:44;;;;;;;1.15;0.30;;;;;;;-2.52;46.90;101354.63;5073860;28;20029;-69
2022/03/15 01:18:11;;;;;;;0.28;0.20;;;;;;;-2.84;47.21;101300.47;5074086;28;20112;-67
2022/03/15 01:20:42;;;;;;;1.50;0.40;;;;;;;-2.31;46.13;101346.66;5073907;28;20036;-69
2022/03/15 01:23:07;;;;;;;0.88;0.40;;;;;;;-2.51;45.99;101331.00;5056092;28;20024;-69
2022/03/15 01:25:36;;;;;;;0.40;0.20;;;;;;;-2.45;46.18;101348.47;5073964;28;20359;-69
2022/03/15 01:28:01;;;;;;;1.42;0.30;;;;;;;-2.21;45.59;101350.16;5073644;28;20072;-69
2022/03/15 01:30:30;;;;;;;0.95;0.30;;;;;;;-2.22;45.12;101361.53;5056152;28;20481;-67
2022/03/15 01:32:55;;;;;;;0.60;0.38;;;;;;;-2.46;46.22;101347.59;5074019;28;21145;-72
2022/03/15 01:35:21;;;;;;;0.73;0.30;;;;;;;-3.24;47.11;101241.09;5073778;28;20031;-73
2022/03/15 01:37:47;;;;;;;2.00;0.40;;;;;;;-2.39;46.07;101352.84;5074113;28;20135;-71
2022/03/15 01:40:13;;;;;;;1.20;0.30;;;;;;;-2.54;46.63;101357.22;5073648;28;20127;-68
2022/03/15 01:42:39;;;;;;;1.85;0.68;;;;;;;-2.80;46.63;101336.28;5073515;28;20115;-71
2022/03/15 01:45:05;;;;;;;1.55;0.50;;;;;;;-2.64;47.01;101371.25;5073902;28;20064;-69
2022/03/15 01:47:31;;;;;;;5.32;0.47;;;;;;;-2.47;46.08;101365.97;5073448;28;20052;-70
2022/03/15 01:49:56;;;;;;;0.55;0.30;;;;;;;-2.53;46.66;101366.84;5073622;28;20469;-68
2022/03/15 01:52:22;;;;;;;1.60;0.40;;;;;;;-2.67;47.58;101371.22;5073832;28;20089;-70
2022/03/15 01:54:48;;;;;;;1.70;0.63;;;;;;;-2.75;47.74;101366.88;5072372;28;20085;-69
2022/03/15 01:57:14;;;;;;;0.55;0.40;;;;;;;-2.85;47.80;101364.25;5073140;28;20024;-68
2022/03/15 01:59:39;;;;;;;1.48;0.50;;;;;;;-2.79;47.72;101375.59;5073305;28;20480;-70
2022/03/15 02:02:06;;;;;;;3.40;0.50;;;;;;;-2.65;46.29;101385.22;5073641;28;20063;-71
2022/03/15 02:04:32;;;;;;;1.42;0.40;;;;;;;-2.77;47.25;101386.97;5072909;28;20025;-68
2022/03/15 02:07:16;;;;;;;1.63;0.60;;;;;;;-2.76;47.02;101372.97;5073238;28;20032;-70
2022/03/15 02:09:41;;;;;;;1.05;0.60;;;;;;;-2.80;47.47;101391.31;5073614;28;20056;-70
2022/03/15 02:12:09;;;;;;;1.20;0.57;;;;;;;-2.86;47.30;101404.44;5073311;28;20509;-70
2022/03/15 02:14:35;;;;;;;1.42;0.80;;;;;;;-2.93;47.88;101393.97;5072739;28;20124;-70
2022/03/15 02:17:00;;;;;;;2.40;0.82;;;;;;;-2.96;47.61;101398.31;5055614;28;20111;-70
2022/03/15 02:19:27;;;;;;;1.05;0.63;;;;;;;-2.86;47.08;101400.09;5073375;28;20039;-72
2022/03/15 02:21:53;;;;;;;1.52;0.70;;;;;;;-3.11;47.14;101366.00;5055025;28;20029;-70
2022/03/15 02:24:19;;;;;;;1.38;0.45;;;;;;;-2.65;46.31;101409.69;5072608;28;20103;-70
2022/03/15 02:26:45;;;;;;;2.05;0.52;;;;;;;-2.61;45.73;101411.44;5073123;28;20028;-69
2022/03/15 02:29:10;;;;;;;2.40;0.70;;;;;;;-2.57;45.87;101414.94;5073490;28;20416;-68
2022/03/15 02:31:36;;;;;;;2.33;0.80;;;;;;;-2.86;45.50;101379.13;5072647;28;20053;-68
2022/03/15 02:34:02;;;;;;;2.90;0.80;;;;;;;-2.79;46.22;101412.31;5072608;28;20060;-68
2022/03/15 02:36:27;;;;;;;1.00;0.50;;;;;;;-2.88;46.50;101414.94;5073466;28;20036;-70
2022/03/15 02:38:53;;;;;;;2.17;0.68;;;;;;;-2.85;46.25;101412.31;5073099;28;20081;-70
2022/03/15 02:41:18;;;;;;;1.85;0.75;;;;;;;-2.94;46.52;101425.38;5038228;28;20074;-69
2022/03/15 02:43:44;;;;;;;2.90;0.85;;;;;;;-2.94;46.14;101423.66;5072283;28;20113;-67
2022/03/15 02:46:11;;;;;;;1.98;0.80;;;;;;;-3.09;47.08;101418.38;5072558;28;20032;-70
2022/03/15 02:48:37;;;;;;;2.97;0.63;;;;;;;-3.04;46.98;101427.13;5072811;28;20087;-70
2022/03/15 02:51:08;;;;;;;3.55;1.08;;;;;;;-2.97;46.32;101428.91;5072715;28;20048;-71
2022/03/15 02:53:37;;;;;;;2.67;1.08;;;;;;;-3.10;47.16;101433.25;5072353;28;20050;-67
2022/03/15 02:56:11;;;;;;;1.30;0.70;;;;;;;-3.24;46.79;101421.84;5072343;28;20028;-69
2022/03/15 02:58:40;;;;;;;1.77;0.82;;;;;;;-3.10;46.69;101428.00;5072610;28;20093;-69
2022/03/15 03:01:07;;;;;;;2.50;1.00;;;;;;;-3.21;46.89;101427.09;5072409;28;20060;-69
2022/03/15 03:03:34;;;;;;;2.75;0.80;;;;;;;-3.20;47.14;101436.69;5054355;28;20075;-70
2022/03/15 03:05:59;;;;;;;2.47;1.10;;;;;;;-3.14;46.54;101446.34;5054344;28;20029;-70
2022/03/15 03:08:25;;;;;;;2.10;0.93;;;;;;;-3.29;46.77;101426.22;5072241;28;20024;-69
2022/03/15 03:10:52;;;;;;;1.33;0.57;;;;;;;-3.31;46.12;101381.66;5071771;28;20034;-70
2022/03/15 03:13:18;;;;;;;1.30;0.82;;;;;;;-3.14;46.40;101446.34;5071752;28;20033;-70
2022/03/15 03:15:44;;;;;;;2.13;1.02;;;;;;;-3.28;47.45;101439.28;5071540;28;20078;-69
2022/03/15 03:18:10;;;;;;;2.05;1.20;;;;;;;-3.33;47.08;101447.16;5071702;28;20032;-70
2022/03/15 03:20:35;;;;;;;2.95;0.82;;;;;;;-3.36;47.50;101447.16;5071952;28;20043;-60
2022/03/15 03:23:01;;;;;;;2.13;1.05;;;;;;;-3.18;47.08;101456.81;5071961;28;20032;-70
2022/03/15 03:25:30;;;;;;;4.22;1.00;;;;;;;-3.49;47.13;101417.44;5071466;28;20082;-70
2022/03/15 03:27:57;;;;;;;1.77;0.90;;;;;;;-3.21;46.51;101451.56;5071977;28;20043;-72
2022/03/15 03:30:23;;;;;;;3.03;1.20;;;;;;;-3.27;47.15;101469.00;5053668;28;20048;-70
2022/03/15 03:32:49;;;;;;;2.15;0.95;;;;;;;-3.36;46.91;101473.34;5053667;28;20435;-68
2022/03/15 03:35:14;;;;;;;2.42;0.80;;;;;;;-3.23;46.12;101469.03;5071689;28;20033;-70
2022/03/15 03:37:40;;;;;;;2.80;1.10;;;;;;;-3.27;46.90;101476.84;5053326;28;20029;-67
2022/03/15 03:40:07;;;;;;;2.05;1.15;;;;;;;-3.58;47.03;101430.47;5053793;28;20163;-62
2022/03/15 03:42:36;;;;;;;1.55;0.77;;;;;;;-3.33;47.03;101478.59;5054169;28;20036;-65
2022/03/15 03:45:03;;;;;;;1.95;0.80;;;;;;;-3.30;46.61;101463.75;5071215;28;20330;-68
2022/03/15 03:47:29;;;;;;;2.78;1.05;;;;;;;-3.27;46.58;101471.63;5071752;28;20040;-67
2022/03/15 03:49:54;;;;;;;2.03;0.88;;;;;;;-3.29;46.64;101465.50;5071419;28;20024;-66
2022/03/15 03:52:20;;;;;;;4.68;1.27;;;;;;;-3.27;46.99;101488.19;5070900;28;20358;-66
2022/03/15 03:54:45;;;;;;;1.77;1.13;;;;;;;-3.59;46.57;101443.59;5071132;28;20118;-69
2022/03/15 03:57:11;;;;;;;2.45;1.00;;;;;;;-3.21;46.41;101497.81;5071744;28;20390;-68
2022/03/15 03:59:37;;;;;;;2.95;1.40;;;;;;;-3.55;47.04;101443.56;5052898;28;20054;-57
2022/03/15 04:02:03;;;;;;;2.38;1.10;;;;;;;-3.22;46.63;101498.69;5053571;28;20040;-68
2022/03/15 04:04:28;;;;;;;1.98;1.00;;;;;;;-3.28;46.35;101443.69;5071216;28;20511;-68
2022/03/15 04:06:55;;;;;;;3.30;1.40;;;;;;;-3.19;46.66;101477.75;5071282;28;20028;-68
2022/03/15 04:09:22;;;;;;;6.00;1.33;;;;;;;-3.26;46.33;101458.50;5052953;28;20056;-68
2022/03/15 04:11:48;;;;;;;2.53;1.20;;;;;;;-3.09;46.63;101503.13;5070892;28;20037;-68
2022/03/15 04:14:15;;;;;;;3.25;1.33;;;;;;;-3.04;45.39;101488.28;5071260;28;20052;-65
2022/03/15 04:16:42;;;;;;;4.10;1.40;;;;;;;-3.08;46.35;101499.63;5071125;28;20028;-72
2022/03/15 04:19:08;;;;;;;3.22;1.23;;;;;;;-3.07;45.83;101496.13;5070593;28;20025;-70
2022/03/15 04:21:34;;;;;;;4.28;1.58;;;;;;;-3.50;46.26;101417.41;5052384;28;20535;-72
2022/03/15 04:24:00;;;;;;;3.50;1.50;;;;;;;-2.92;46.36;101510.13;5071254;28;20036;-71
2022/03/15 04:26:26;;;;;;;4.57;1.30;;;;;;;-2.79;45.94;101505.78;5070681;28;20040;-71
2022/03/15 04:28:53;;;;;;;2.63;1.08;;;;;;;-1.65;44.18;101512.78;5070601;28;20134;-74
2022/03/15 04:31:20;;;;;;;3.15;1.20;;;;;;;0.87;39.35;101507.31;5070670;28;20049;-68
2022/03/15 04:33:46;;;;;;;3.22;1.10;;;;;;;2.98;35.13;101490.41;5071340;28;20485;-66
2022/03/15 04:36:11;;;;;;;6.28;1.50;;;;;;;4.44;32.08;101462.91;5052790;28;20025;-65
2022/03/15 04:38:37;;;;;;;2.75;1.30;;;;;;;5.83;29.84;101452.41;5070816;28;20512;-67
2022/03/15 04:41:05;;;;;;;2.15;1.10;;;;;;;7.29;27.70;101484.28;5070432;28;20032;-67
2022/03/15 04:43:31;;;;;;;2.47;1.25;;;;;;;8.75;26.32;101496.78;5053058;28;20070;-67
2022/03/15 04:45:57;;;;;;;2.05;1.00;;;;;;;9.95;24.50;101498.16;5070702;28;20059;-67
2022/03/15 04:48:23;;;;;;;2.33;1.08;;;;;;;10.47;23.12;101466.00;5070703;28;20036;-69
2022/03/15 04:50:49;;;;;;;2.35;1.17;;;;;;;11.02;23.03;101501.44;5070263;28;20028;-65
2022/03/15 04:53:15;;;;;;;2.90;0.80;;;;;;;11.51;21.95;101510.31;5070961;28;20029;-63
2022/03/15 04:55:41;;;;;;;1.00;0.90;;;;;;;11.92;21.29;101507.06;5070622;28;20066;-61
2022/03/15 04:58:06;;;;;;;2.75;1.02;;;;;;;12.58;20.62;101503.16;5070610;28;20031;-67
2022/03/15 05:00:32;;;;;;;4.50;1.50;;;;;;;12.78;19.48;101502.78;5069820;28;20043;-67
2022/03/15 05:02:58;;;;;;;3.17;1.08;;;;;;;12.99;19.52;101496.97;5070418;28;20034;-68
2022/03/15 05:05:23;;;;;;;1.65;1.10;;;;;;;12.74;18.86;101481.56;5070700;28;20489;-69
2022/03/15 05:07:49;;;;;;;3.38;1.45;;;;;;;12.14;19.19;101519.22;5070293;28;20032;-69
2022/03/15 05:13:00;;;;;;;2.10;1.20;;;;;;;13.34;18.95;101515.34;5070515;28;20036;-68
2022/03/15 05:15:26;;;;;;;4.35;1.85;;;;;;;13.59;18.12;101516.47;5071088;28;20448;-71
2022/03/15 05:17:52;;;;;;;2.28;1.20;;;;;;;14.94;18.64;101519.84;5074601;28;20033;-70
2022/03/15 05:20:18;;;;;;;1.92;1.55;;;;;;;14.68;17.02;101521.69;5055685;28;20032;-72
2022/03/15 05:22:44;;;;;;;2.55;1.33;;;;;;;15.60;16.40;101508.72;5052639;28;20025;-62
2022/03/15 05:25:11;;;;;;;5.80;1.75;;;;;;;16.67;15.33;101515.06;5069837;28;20473;-62
2022/03/15 05:27:37;;;;;;;2.08;1.55;;;;;;;16.90;14.84;101502.41;5070379;28;20036;-63
2022/03/15 05:30:03;;;;;;;2.80;1.30;;;;;;;17.26;14.69;101522.06;5053264;28;20099;-61
2022/03/15 05:32:29;;;;;;;2.65;1.60;;;;;;;15.72;15.38;101519.59;5073513;28;20070;-67
2022/03/15 05:34:55;;;;;;;4.68;1.60;;;;;;;16.35;15.20;101517.47;5073699;28;20024;-64
2022/03/15 05:37:21;;;;;;;3.80;1.70;;;;;;;16.56;15.06;101519.47;5074122;28;20386;-66
2022/03/15 05:39:46;;;;;;;3.05;1.92;;;;;;;17.05;14.44;101520.09;5073608;28;20036;-63
2022/03/15 05:42:13;;;;;;;4.47;1.73;;;;;;;17.24;14.38;101526.72;5073809;28;20025;-65
2022/03/15 05:44:39;;;;;;;4.30;2.00;;;;;;;17.52;14.07;101539.84;5074000;28;20033;-70
2022/03/15 05:47:05;;;;;;;3.50;1.88;;;;;;;17.98;13.72;101529.69;5073392;28;20470;-72
2022/03/15 05:49:31;;;;;;;3.13;2.05;;;;;;;19.14;13.19;101535.09;5055408;28;20029;-64
2022/03/15 05:51:56;;;;;;;4.20;1.90;;;;;;;20.50;12.12;101519.84;5073769;28;20125;-66
2022/03/15 05:54:22;;;;;;;3.55;1.90;;;;;;;21.85;11.06;101535.75;5073550;28;20032;-68
2022/03/15 05:56:47;;;;;;;4.13;2.10;;;;;;;22.44;10.63;101551.56;5073231;28;20032;-68
2022/03/15 05:59:13;;;;;;;4.85;1.90;;;;;;;22.51;10.68;101549.94;5055904;28;20040;-67
2022/03/15 06:01:39;;;;;;;6.68;1.60;;;;;;;23.08;10.20;101539.47;5073774;28;20041;-71
2022/03/15 06:04:05;;;;;;;1.77;1.48;;;;;;;23.98;9.66;101556.28;5072982;28;20059;-63
2022/03/15 06:06:31;;;;;;;5.57;1.70;;;;;;;24.13;9.41;101534.59;5072915;28;20177;-66
2022/03/15 06:08:56;;;;;;;3.75;1.85;;;;;;;24.71;8.95;101543.56;5073584;28;20127;-62
2022/03/15 06:11:22;;;;;;;2.50;1.50;;;;;;;25.12;8.91;101544.47;5073078;28;20041;-64
2022/03/15 06:13:48;;;;;;;3.40;1.63;;;;;;;25.71;8.43;101543.97;5072362;28;20029;-63
2022/03/15 06:16:13;;;;;;;3.85;1.80;;;;;;;26.58;8.13;101544.59;5054531;28;20119;-64
2022/03/15 06:18:39;;;;;;;4.22;1.83;;;;;;;26.78;7.69;101522.06;5072654;28;20036;-64
2022/03/15 06:21:05;;;;;;;2.30;1.40;;;;;;;27.41;7.56;101548.25;5072769;28;20036;-63
2022/03/15 06:23:30;;;;;;;2.65;1.65;;;;;;;27.55;7.02;101539.13;5072250;28;20462;-62
2022/03/15 06:25:56;;;;;;;4.47;2.05;;;;;;;27.74;6.87;101554.13;5054097;28;20146;-62
2022/03/15 06:28:21;;;;;;;3.05;1.60;;;;;;;27.93;6.89;101551.78;5055199;28;20467;-62
2022/03/15 06:30:47;;;;;;;3.67;1.73;;;;;;;27.93;6.77;101544.34;5070446;28;20055;-61
2022/03/15 06:33:13;;;;;;;4.43;1.50;;;;;;;27.78;6.54;101555.44;5072569;28;20036;-63
2022/03/15 06:35:41;;;;;;;3.22;1.52;;;;;;;28.29;6.62;101542.56;5072397;28;20032;-62
2022/03/15 06:38:08;;;;;;;4.47;1.48;;;;;;;28.60;6.53;101548.72;5072778;28;20554;-63
2022/03/15 06:40:36;;;;;;;2.55;1.60;;;;;;;29.11;6.23;101535.66;5072602;28;20040;-62
2022/03/15 06:43:02;;;;;;;6.00;1.77;;;;;;;29.57;6.15;101540.50;5072160;28;20028;-62
2022/03/15 06:45:28;;;;;;;4.53;1.58;;;;;;;29.86;5.71;101549.44;5053898;28;20478;-63
2022/03/15 06:47:54;;;;;;;4.20;1.50;;;;;;;29.96;5.67;101549.03;5054630;28;20039;-65
2022/03/15 06:50:19;;;;;;;3.30;1.10;;;;;;;29.58;5.51;101553.22;5071962;28;20090;-66
2022/03/15 06:52:47;;;;;;;3.60;1.23;;;;;;;28.97;6.36;101551.28;5051098;28;20531;-65
2022/03/15 06:55:13;;;;;;;3.72;1.52;;;;;;;29.35;5.79;101546.13;5072033;28;20035;-69
2022/03/15 06:57:39;;;;;;;4.43;1.50;;;;;;;29.85;6.00;101558.78;5071803;28;20067;-63
2022/03/15 07:00:07;;;;;;;3.90;1.85;;;;;;;30.39;5.72;101524.81;5053391;28;20504;-66
2022/03/15 07:02:33;;;;;;;4.68;2.03;;;;;;;30.70;5.19;101540.75;5071323;28;20033;-67
2022/03/15 07:04:58;;;;;;;8.13;1.75;;;;;;;30.79;5.29;101547.72;5053149;28;20021;-65
2022/03/15 07:07:24;;;;;;;9.55;2.10;;;;;;;30.89;5.24;101543.66;5071306;28;20086;-63
2022/03/15 07:09:49;;;;;;;8.00;1.75;;;;;;;31.00;5.53;101547.69;5071201;28;20029;-70
2022/03/15 07:12:16;;;;;;;6.88;2.33;;;;;;;31.28;4.95;101555.66;5071592;28;20040;-66
2022/03/15 07:14:43;;;;;;;6.07;1.83;;;;;;;31.06;4.76;101544.84;5053253;28;20036;-65
2022/03/15 07:17:09;;;;;;;2.90;1.77;;;;;;;30.75;5.31;101553.94;5071601;28;20029;-64
2022/03/15 07:19:34;;;;;;;6.18;1.65;;;;;;;30.79;5.25;101522.00;5071115;28;20474;-64
2022/03/15 07:22:00;;;;;;;1.88;1.48;;;;;;;31.38;5.08;101548.81;5053350;28;20040;-65
2022/03/15 07:24:26;;;;;;;4.63;2.00;;;;;;;31.96;4.81;101533.09;5053717;28;20033;-62
2022/03/15 07:26:51;;;;;;;2.20;1.42;;;;;;;32.35;4.15;101544.94;5053345;28;20028;-64
2022/03/15 07:29:17;;;;;;;2.58;1.30;;;;;;;32.06;4.31;101544.50;5036830;28;20032;-64
2022/03/15 07:31:42;;;;;;;4.75;1.55;;;;;;;32.22;4.27;101527.31;5071298;28;20048;-66
2022/03/15 07:34:08;;;;;;;5.10;1.80;;;;;;;32.26;4.22;101504.69;5071038;28;20051;-64
2022/03/15 07:36:35;;;;;;;2.45;1.80;;;;;;;32.32;4.36;101509.34;5053050;28;20039;-63
2022/03/15 07:39:01;;;;;;;5.35;1.80;;;;;;;32.26;4.55;101540.72;5071154;28;20120;-66
2022/03/15 07:41:26;;;;;;;8.13;4.82;;;;;;;32.12;4.46;101543.63;5070539;28;20123;-63
2022/03/15 07:43:52;;;;;;;6.60;2.30;;;;;;;31.49;4.44;101543.41;5069669;28;20031;-65
2022/03/15 07:46:18;;;;;;;7.38;2.10;;;;;;;31.36;4.87;101546.25;5053361;28;20389;-64
2022/03/15 07:48:43;;;;;;;3.92;1.55;;;;;;;30.85;4.78;101545.16;5071103;28;20055;-63
2022/03/15 07:51:09;;;;;;;5.93;1.73;;;;;;;30.21;5.32;101546.53;5070861;28;20036;-65
2022/03/15 07:53:34;;;;;;;5.70;1.80;;;;;;;29.33;5.31;101504.13;5069848;28;20036;-65
2022/03/15 07:56:00;;;;;;;6.32;1.60;;;;;;;28.86;5.91;101536.19;5070888;28;20397;-65
2022/03/15 07:58:27;;;;;;;4.53;1.70;;;;;;;28.37;5.99;101547.06;5070927;28;20036;-65
2022/03/15 08:00:56;;;;;;;4.45;2.20;;;;;;;26.78;6.29;101542.16;5052314;28;20377;-64
2022/03/15 08:03:22;;;;;;;6.18;1.95;;;;;;;24.22;8.05;101547.22;5032717;28;20021;-64
2022/03/15 08:05:48;;;;;;;5.90;1.63;;;;;;;20.69;10.11;101541.69;5058556;28;20469;-64
2022/03/15 08:08:15;;;;;;;5.47;1.80;;;;;;;17.53;12.16;101558.66;5052745;28;20051;-66
2022/03/15 08:10:41;;;;;;;4.40;1.70;;;;;;;14.58;14.58;101553.81;5035820;28;20452;-67
2022/03/15 08:13:07;;;;;;;3.92;1.75;;;;;;;12.38;16.82;101544.66;5052468;28;20047;-67
2022/03/15 08:15:33;;;;;;;4.03;2.33;;;;;;;10.70;18.54;101552.31;5070894;28;20040;-70
2022/03/15 08:17:58;;;;;;;10.32;3.95;;;;;;;9.49;20.01;101558.34;5036002;28;20028;-64
2022/03/15 08:20:27;;;;;;;4.63;1.60;;;;;;;8.50;20.89;101552.22;5052273;28;20032;-65
2022/03/15 08:22:53;;;;;;;8.75;2.33;;;;;;;7.55;22.12;101554.31;5052976;28;20382;-65
2022/03/15 08:25:19;;;;;;;5.13;1.52;;;;;;;6.88;22.78;101553.34;5053562;28;20028;-64
2022/03/15 08:27:45;;;;;;;8.75;1.40;;;;;;;6.56;23.49;101566.03;5070700;28;20363;-65
2022/03/15 08:30:11;;;;;;;3.13;1.20;;;;;;;6.15;23.43;101556.78;5052391;28;20036;-67
2022/03/15 08:32:36;;;;;;;3.78;1.30;;;;;;;5.86;24.41;101553.31;5070758;28;20489;-67
2022/03/15 08:35:03;;;;;;;3.80;1.30;;;;;;;5.59;24.24;101545.31;5070710;28;20082;-66
2022/03/15 08:37:29;;;;;;;3.05;1.33;;;;;;;5.37;25.00;101549.56;5070488;28;20105;-65
2022/03/15 08:39:55;;;;;;;4.72;1.20;;;;;;;5.10;24.57;101552.16;5052103;28;20466;-65
2022/03/15 08:42:21;;;;;;;1.63;1.00;;;;;;;4.91;25.55;101551.78;5070925;28;20028;-67
2022/03/15 08:44:46;;;;;;;4.45;1.70;;;;;;;4.87;25.70;101540.41;5036750;28;20037;-66
2022/03/15 08:47:12;;;;;;;2.65;1.48;;;;;;;4.85;25.91;101550.22;5052617;28;20382;-66
2022/03/15 08:49:38;;;;;;;3.28;1.27;;;;;;;4.86;25.90;101550.16;5052076;28;20485;-65
2022/03/15 08:52:07;;;;;;;2.13;1.08;;;;;;;4.86;26.32;101559.91;5052517;28;20109;-66
2022/03/15 08:54:34;;;;;;;14.05;1.25;;;;;;;4.84;26.53;101564.41;5036098;28;20053;-66
2022/03/15 08:57:00;;;;;;;3.97;1.20;;;;;;;4.51;26.26;101498.09;5070067;28;20107;-64
2022/03/15 08:59:26;;;;;;;2.47;1.02;;;;;;;4.57;26.15;101541.25;5052221;28;20537;-67
2022/03/15 09:01:52;;;;;;;4.97;1.10;;;;;;;4.45;26.93;101537.16;5070424;28;20033;-66
2022/03/15 09:04:18;;;;;;;3.45;1.33;;;;;;;4.23;26.98;101539.53;5072139;28;20094;-65
2022/03/15 09:06:43;;;;;;;2.95;1.27;;;;;;;4.22;27.85;101545.72;5056101;28;20466;-67
2022/03/15 09:09:09;;;;;;;6.05;1.38;;;;;;;4.29;27.28;101559.69;5039333;28;20041;-65
2022/03/15 09:11:35;;;;;;;3.70;1.10;;;;;;;4.23;27.05;101550.13;5073949;28;20052;-66
2022/03/15 09:14:01;;;;;;;2.58;1.02;;;;;;;4.25;27.25;101564.22;5074074;28;20036;-65
2022/03/15 09:16:27;;;;;;;5.13;1.10;;;;;;;3.86;26.70;101508.66;5073674;28;20393;-65
2022/03/15 09:18:53;;;;;;;2.15;0.80;;;;;;;4.08;27.01;101547.88;5056560;28;20032;-65
2022/03/15 09:21:19;;;;;;;3.67;1.17;;;;;;;4.13;27.16;101546.84;5039643;28;20035;-65
2022/03/15 09:23:45;;;;;;;2.35;1.00;;;;;;;4.21;27.10;101546.63;5073642;28;20047;-67
2022/03/15 09:26:11;;;;;;;4.15;1.02;;;;;;;4.36;27.15;101544.47;5056382;28;20070;-66
2022/03/15 09:28:37;;;;;;;4.85;1.60;;;;;;;4.50;27.50;101555.59;5073727;28;20091;-66
2022/03/15 09:31:04;;;;;;;6.05;1.63;;;;;;;4.44;27.80;101556.63;5055420;28;20445;-65
2022/03/15 09:33:30;;;;;;;6.20;1.60;;;;;;;4.43;27.87;101541.63;5074047;28;20071;-66
2022/03/15 09:35:55;;;;;;;4.45;1.50;;;;;;;4.52;27.64;101552.88;5073545;28;20082;-64
2022/03/15 09:38:21;;;;;;;2.78;1.60;;;;;;;4.45;28.30;101542.44;5038843;28;20048;-67
2022/03/15 09:40:52;;;;;;;9.75;4.72;;;;;;;4.48;28.17;101552.13;5055473;28;20032;-67
2022/03/15 09:43:23;;;;;;;3.72;2.20;;;;;;;4.48;28.11;101564.50;5055890;28;20069;-66
2022/03/15 09:45:51;;;;;;;3.20;1.20;;;;;;;4.10;27.58;101507.16;5073279;28;20072;-68
2022/03/15 09:48:21;;;;;;;1.98;0.98;;;;;;;4.45;28.20;101554.81;5073299;28;20029;-68
2022/03/15 09:50:51;;;;;;;4.25;1.35;;;;;;;4.28;27.67;101512.88;5039318;28;20032;-67
2022/03/15 09:53:18;;;;;;;3.42;1.77;;;;;;;4.50;28.28;101558.25;5073746;28;20040;-69
2022/03/15 09:55:45;;;;;;;3.65;1.30;;;;;;;4.31;28.67;101540.19;5054872;28;20037;-66
2022/03/15 09:58:13;;;;;;;2.85;1.20;;;;;;;4.25;29.03;101550.97;5072978;28;20056;-65
2022/03/15 10:00:39;;;;;;;4.93;1.60;;;;;;;4.19;28.72;101548.44;5055693;28;20587;-66
2022/03/15 10:03:04;;;;;;;6.43;1.75;;;;;;;4.09;28.49;101550.47;5073160;28;20036;-66
2022/03/15 10:05:30;;;;;;;7.18;1.45;;;;;;;4.04;27.96;101541.75;5038216;28;20020;-65
2022/03/15 10:07:55;;;;;;;4.07;1.60;;;;;;;3.85;27.83;101534.28;5073451;28;20032;-67
2022/03/15 10:10:23;;;;;;;5.03;1.08;;;;;;;3.93;28.75;101555.28;5073695;28;20070;-66
2022/03/15 10:12:48;;;;;;;6.25;1.40;;;;;;;3.93;28.94;101565.88;5054966;28;20028;-66
2022/03/15 10:15:21;;;;;;;2.55;1.20;;;;;;;4.01;28.28;101563.94;5071974;28;20024;-66
2022/03/15 10:17:55;;;;;;;4.93;1.50;;;;;;;3.98;28.61;101557.81;5054901;28;20028;-66
2022/03/15 10:20:28;;;;;;;7.80;1.25;;;;;;;3.98;28.61;101555.19;5055575;28;20025;-66
2022/03/15 10:22:57;;;;;;;3.65;1.05;;;;;;;4.08;28.14;101567.28;5073506;28;20033;-65
2022/03/15 10:25:24;;;;;;;1.88;1.00;;;;;;;4.11;28.38;101551.31;5038077;28;20028;-65
2022/03/15 10:27:51;;;;;;;2.33;1.10;;;;;;;4.19;28.46;101548.44;5072745;28;20029;-67
2022/03/15 10:30:17;;;;;;;4.15;1.35;;;;;;;4.25;27.85;101552.72;5055274;28;20851;-67
2022/03/15 10:32:42;;;;;;;1.00;0.80;;;;;;;4.27;27.45;101535.88;5072687;28;20064;-66
2022/03/15 10:35:09;;;;;;;6.82;1.30;;;;;;;4.05;28.84;101548.81;5072216;28;20032;-68
2022/03/15 10:37:37;;;;;;;5.45;1.30;;;;;;;3.95;29.02;101536.72;5054690;28;20141;-66
2022/03/15 10:40:03;;;;;;;4.72;1.50;;;;;;;3.82;29.29;101499.91;5055032;28;20025;-67
2022/03/15 10:42:29;;;;;;;3.65;1.45;;;;;;;4.18;28.52;101540.53;5054609;28;20110;-64
2022/03/15 10:44:56;;;;;;;9.35;1.65;;;;;;;4.28;28.59;101532.31;5054092;28;20028;-66
2022/03/15 10:47:22;;;;;;;5.18;1.30;;;;;;;4.30;28.49;101545.50;5072227;28;20086;-65
2022/03/15 10:49:49;;;;;;;2.33;1.15;;;;;;;4.22;28.18;101539.53;5038223;28;20853;-66
2022/03/15 10:52:28;;;;;;;2.67;1.10;;;;;;;4.08;28.88;101539.91;5072200;28;20024;-67
2022/03/15 10:54:54;;;;;;;3.75;1.60;;;;;;;3.99;28.43;101530.41;5072192;28;20065;-66
2022/03/15 10:57:20;;;;;;;4.68;1.40;;;;;;;4.07;29.62;101535.53;5071825;28;20033;-67
2022/03/15 10:59:45;;;;;;;3.72;1.20;;;;;;;4.14;29.09;101523.84;5054022;28;20060;-67
2022/03/15 11:02:12;;;;;;;2.60;1.38;;;;;;;4.17;28.63;101526.41;5053995;28;20047;-65
2022/03/15 11:04:55;;;;;;;4.63;1.23;;;;;;;4.16;29.27;101522.91;5053348;28;20081;-65
2022/03/15 11:07:21;;;;;;;1.95;0.93;;;;;;;3.87;28.42;101484.78;5071934;28;20031;-66
2022/03/15 11:09:47;;;;;;;2.88;1.30;;;;;;;4.01;28.99;101512.69;5053772;28;20119;-66
2022/03/15 11:12:12;;;;;;;2.97;1.40;;;;;;;3.95;28.96;101524.31;5037014;28;20044;-66
2022/03/15 11:14:47;;;;;;;1.80;1.08;;;;;;;4.04;29.29;101539.09;5054681;28;20440;-66
2022/03/15 11:17:19;;;;;;;2.28;1.23;;;;;;;4.13;28.78;101535.34;5053897;28;20405;-68
2022/03/15 11:19:50;;;;;;;3.38;1.30;;;;;;;4.05;29.00;101519.66;5071672;28;20031;-66
2022/03/15 11:22:20;;;;;;;3.25;1.60;;;;;;;4.09;28.71;101534.56;5072047;28;20497;-66
2022/03/15 11:25:17;;;;;;;3.05;1.50;;;;;;;4.13;28.74;101535.34;5071371;28;20029;-65
2022/03/15 11:27:45;;;;;;;2.90;1.00;;;;;;;4.06;28.29;101531.13;5070539;28;20029;-66